sensor_id;sensor_type;location;lat;lon;timestamp;P1;P2;P0
40569;PMS5003;26270;34.428;-119.710;2022-12-08T00:01:05;2;1;
40569;PMS5003;26270;34.428;-119.710;2022-12-08T00:03:34;1;1;
40569;PMS5003;26270;34.428;-119.710;2022-12-08T00:06:03;3;3;
40569;PMS5003;26270;34.428;-119.710;2022-12-08T00:08:33;3;3;
40569;PMS5003;26270;34.428;-119.710;2022-12-08T00:11:01;1;1;
40569;PMS5003;26270;34.428;-119.710;2022-12-08T00:13:30;5;4;
40569;PMS5003;26270;34.428;-119.710;2022-12-08T00:15:59;3;2;
40569;PMS5003;26270;34.428;-119.710;2022-12-08T00:18:26;1;1;
40569;PMS5003;26270;34.428;-119.710;2022-12-08T00:20:55;0;0;
40569;PMS5003;26270;34.428;-119.710;2022-12-08T00:23:23;0;0;
40569;PMS5003;26270;34.428;-119.710;2022-12-08T00:25:52;0;0;
40569;PMS5003;26270;34.428;-119.710;2022-12-08T00:28:20;0;0;
40569;PMS5003;26270;34.428;-119.710;2022-12-08T00:30:48;1;0;
40569;PMS5003;26270;34.428;-119.710;2022-12-08T00:33:17;1;0;
40569;PMS5003;26270;34.428;-119.710;2022-12-08T00:35:45;0;0;
40569;PMS5003;26270;34.428;-119.710;2022-12-08T00:38:13;1;0;
40569;PMS5003;26270;34.428;-119.710;2022-12-08T00:40:43;1;1;
40569;PMS5003;26270;34.428;-119.710;2022-12-08T00:43:11;0;0;
40569;PMS5003;26270;34.428;-119.710;2022-12-08T00:45:40;0;0;
40569;PMS5003;26270;34.428;-119.710;2022-12-08T00:48:08;0;0;
40569;PMS5003;26270;34.428;-119.710;2022-12-08T00:50:36;1;1;
40569;PMS5003;26270;34.428;-119.710;2022-12-08T00:53:05;1;1;
40569;PMS5003;26270;34.428;-119.710;2022-12-08T00:55:33;2;1;
40569;PMS5003;26270;34.428;-119.710;2022-12-08T00:58:02;1;1;
40569;PMS5003;26270;34.428;-119.710;2022-12-08T01:00:30;1;1;
40569;PMS5003;26270;34.428;-119.710;2022-12-08T01:02:59;4;4;
40569;PMS5003;26270;34.428;-119.710;2022-12-08T01:05:27;4;4;
40569;PMS5003;26270;34.428;-119.710;2022-12-08T01:07:55;5;4;
40569;PMS5003;26270;34.428;-119.710;2022-12-08T01:10:23;5;4;
40569;PMS5003;26270;34.428;-119.710;2022-12-08T01:12:51;7;7;
40569;PMS5003;26270;34.428;-119.710;2022-12-08T01:15:19;2;2;
40569;PMS5003;26270;34.428;-119.710;2022-12-08T01:17:48;2;1;
40569;PMS5003;26270;34.428;-119.710;2022-12-08T01:20:16;1;1;
40569;PMS5003;26270;34.428;-119.710;2022-12-08T01:22:44;0;0;
40569;PMS5003;26270;34.428;-119.710;2022-12-08T01:25:12;1;1;
40569;PMS5003;26270;34.428;-119.710;2022-12-08T01:27:40;1;1;
40569;PMS5003;26270;34.428;-119.710;2022-12-08T01:30:09;2;1;
40569;PMS5003;26270;34.428;-119.710;2022-12-08T01:32:38;2;2;
40569;PMS5003;26270;34.428;-119.710;2022-12-08T01:35:07;1;1;
40569;PMS5003;26270;34.428;-119.710;2022-12-08T01:37:35;3;2;
40569;PMS5003;26270;34.428;-119.710;2022-12-08T01:40:04;4;3;
40569;PMS5003;26270;34.428;-119.710;2022-12-08T01:42:33;7;6;
40569;PMS5003;26270;34.428;-119.710;2022-12-08T01:45:02;5;4;
40569;PMS5003;26270;34.428;-119.710;2022-12-08T01:47:34;2;2;
40569;PMS5003;26270;34.428;-119.710;2022-12-08T01:50:07;5;4;
40569;PMS5003;26270;34.428;-119.710;2022-12-08T01:52:39;6;4;
40569;PMS5003;26270;34.428;-119.710;2022-12-08T01:55:13;6;4;
40569;PMS5003;26270;34.428;-119.710;2022-12-08T01:57:46;4;2;
40569;PMS5003;26270;34.428;-119.710;2022-12-08T02:00:19;4;3;
40569;PMS5003;26270;34.428;-119.710;2022-12-08T02:02:51;3;3;
40569;PMS5003;26270;34.428;-119.710;2022-12-08T02:05:24;2;2;
40569;PMS5003;26270;34.428;-119.710;2022-12-08T02:07:55;2;2;
40569;PMS5003;26270;34.428;-119.710;2022-12-08T02:10:27;5;4;
40569;PMS5003;26270;34.428;-119.710;2022-12-08T02:12:58;4;4;
40569;PMS5003;26270;34.428;-119.710;2022-12-08T02:15:30;3;3;
40569;PMS5003;26270;34.428;-119.710;2022-12-08T02:18:08;4;3;
40569;PMS5003;26270;34.428;-119.710;2022-12-08T02:20:52;2;2;
40569;PMS5003;26270;34.428;-119.710;2022-12-08T02:23:30;4;4;
40569;PMS5003;26270;34.428;-119.710;2022-12-08T02:26:11;3;2;
40569;PMS5003;26270;34.428;-119.710;2022-12-08T02:30:02;4;3;
40569;PMS5003;26270;34.428;-119.710;2022-12-08T02:32:43;6;6;
40569;PMS5003;26270;34.428;-119.710;2022-12-08T02:35:30;5;5;
40569;PMS5003;26270;34.428;-119.710;2022-12-08T02:38:06;6;5;
40569;PMS5003;26270;34.428;-119.710;2022-12-08T02:40:47;7;5;
40569;PMS5003;26270;34.428;-119.710;2022-12-08T02:43:25;5;4;
40569;PMS5003;26270;34.428;-119.710;2022-12-08T02:45:57;8;6;
40569;PMS5003;26270;34.428;-119.710;2022-12-08T02:48:29;5;5;
40569;PMS5003;26270;34.428;-119.710;2022-12-08T02:50:59;7;7;
40569;PMS5003;26270;34.428;-119.710;2022-12-08T02:53:28;7;6;
40569;PMS5003;26270;34.428;-119.710;2022-12-08T02:56:01;6;5;
40569;PMS5003;26270;34.428;-119.710;2022-12-08T02:58:45;5;5;
40569;PMS5003;26270;34.428;-119.710;2022-12-08T03:01:32;4;4;
40569;PMS5003;26270;34.428;-119.710;2022-12-08T03:04:14;5;4;
40569;PMS5003;26270;34.428;-119.710;2022-12-08T03:06:49;4;4;
40569;PMS5003;26270;34.428;-119.710;2022-12-08T03:09:28;5;5;
40569;PMS5003;26270;34.428;-119.710;2022-12-08T03:12:03;5;5;
40569;PMS5003;26270;34.428;-119.710;2022-12-08T03:14:39;4;4;
40569;PMS5003;26270;34.428;-119.710;2022-12-08T03:17:13;6;5;
40569;PMS5003;26270;34.428;-119.710;2022-12-08T03:19:43;4;4;
40569;PMS5003;26270;34.428;-119.710;2022-12-08T03:22:14;5;5;
40569;PMS5003;26270;34.428;-119.710;2022-12-08T03:24:47;6;6;
40569;PMS5003;26270;34.428;-119.710;2022-12-08T03:27:18;6;6;
40569;PMS5003;26270;34.428;-119.710;2022-12-08T03:29:49;6;6;
40569;PMS5003;26270;34.428;-119.710;2022-12-08T03:32:21;6;5;
40569;PMS5003;26270;34.428;-119.710;2022-12-08T03:34:54;4;4;
40569;PMS5003;26270;34.428;-119.710;2022-12-08T03:37:26;7;7;
40569;PMS5003;26270;34.428;-119.710;2022-12-08T03:39:55;5;5;
40569;PMS5003;26270;34.428;-119.710;2022-12-08T03:42:23;6;6;
40569;PMS5003;26270;34.428;-119.710;2022-12-08T03:44:52;6;4;
40569;PMS5003;26270;34.428;-119.710;2022-12-08T03:47:20;5;5;
40569;PMS5003;26270;34.428;-119.710;2022-12-08T03:49:49;5;4;
40569;PMS5003;26270;34.428;-119.710;2022-12-08T03:52:17;4;4;
40569;PMS5003;26270;34.428;-119.710;2022-12-08T03:54:46;5;4;
40569;PMS5003;26270;34.428;-119.710;2022-12-08T03:57:14;5;4;
40569;PMS5003;26270;34.428;-119.710;2022-12-08T03:59:42;5;5;
40569;PMS5003;26270;34.428;-119.710;2022-12-08T04:02:11;4;4;
40569;PMS5003;26270;34.428;-119.710;2022-12-08T04:04:39;4;4;
40569;PMS5003;26270;34.428;-119.710;2022-12-08T04:07:08;3;3;
40569;PMS5003;26270;34.428;-119.710;2022-12-08T04:09:36;6;5;
40569;PMS5003;26270;34.428;-119.710;2022-12-08T04:12:04;7;6;
40569;PMS5003;26270;34.428;-119.710;2022-12-08T04:14:33;5;5;
40569;PMS5003;26270;34.428;-119.710;2022-12-08T04:17:01;7;6;
40569;PMS5003;26270;34.428;-119.710;2022-12-08T04:19:30;6;6;
40569;PMS5003;26270;34.428;-119.710;2022-12-08T04:21:58;11;10;
40569;PMS5003;26270;34.428;-119.710;2022-12-08T04:24:26;15;15;
40569;PMS5003;26270;34.428;-119.710;2022-12-08T04:26:55;14;14;
40569;PMS5003;26270;34.428;-119.710;2022-12-08T04:29:24;13;13;
40569;PMS5003;26270;34.428;-119.710;2022-12-08T04:31:52;28;24;
40569;PMS5003;26270;34.428;-119.710;2022-12-08T04:34:20;28;25;
40569;PMS5003;26270;34.428;-119.710;2022-12-08T04:36:48;23;22;
40569;PMS5003;26270;34.428;-119.710;2022-12-08T04:39:16;22;22;
40569;PMS5003;26270;34.428;-119.710;2022-12-08T04:41:44;17;17;
40569;PMS5003;26270;34.428;-119.710;2022-12-08T04:44:13;15;15;
40569;PMS5003;26270;34.428;-119.710;2022-12-08T04:46:41;17;15;
40569;PMS5003;26270;34.428;-119.710;2022-12-08T04:49:10;15;14;
40569;PMS5003;26270;34.428;-119.710;2022-12-08T04:51:38;14;13;
40569;PMS5003;26270;34.428;-119.710;2022-12-08T04:54:07;13;11;
40569;PMS5003;26270;34.428;-119.710;2022-12-08T04:56:35;15;15;
40569;PMS5003;26270;34.428;-119.710;2022-12-08T04:59:04;9;9;
40569;PMS5003;26270;34.428;-119.710;2022-12-08T05:03:18;10;9;
40569;PMS5003;26270;34.428;-119.710;2022-12-08T05:05:46;6;5;
40569;PMS5003;26270;34.428;-119.710;2022-12-08T05:08:14;7;6;
40569;PMS5003;26270;34.428;-119.710;2022-12-08T05:10:42;8;8;
40569;PMS5003;26270;34.428;-119.710;2022-12-08T05:13:11;9;9;
40569;PMS5003;26270;34.428;-119.710;2022-12-08T05:15:40;12;12;
40569;PMS5003;26270;34.428;-119.710;2022-12-08T05:18:08;14;12;
40569;PMS5003;26270;34.428;-119.710;2022-12-08T05:20:36;11;10;
40569;PMS5003;26270;34.428;-119.710;2022-12-08T05:23:04;10;9;
40569;PMS5003;26270;34.428;-119.710;2022-12-08T05:25:33;9;8;
40569;PMS5003;26270;34.428;-119.710;2022-12-08T05:28:01;12;12;
40569;PMS5003;26270;34.428;-119.710;2022-12-08T05:30:29;18;18;
40569;PMS5003;26270;34.428;-119.710;2022-12-08T05:32:58;12;11;
40569;PMS5003;26270;34.428;-119.710;2022-12-08T05:35:26;13;13;
40569;PMS5003;26270;34.428;-119.710;2022-12-08T05:37:53;11;10;
40569;PMS5003;26270;34.428;-119.710;2022-12-08T05:40:27;15;12;
40569;PMS5003;26270;34.428;-119.710;2022-12-08T05:42:56;13;12;
40569;PMS5003;26270;34.428;-119.710;2022-12-08T05:45:24;15;11;
40569;PMS5003;26270;34.428;-119.710;2022-12-08T05:47:52;10;9;
40569;PMS5003;26270;34.428;-119.710;2022-12-08T05:50:20;8;7;
40569;PMS5003;26270;34.428;-119.710;2022-12-08T05:52:48;6;6;
40569;PMS5003;26270;34.428;-119.710;2022-12-08T05:55:16;11;9;
40569;PMS5003;26270;34.428;-119.710;2022-12-08T05:57:45;11;11;
40569;PMS5003;26270;34.428;-119.710;2022-12-08T06:00:14;11;11;
40569;PMS5003;26270;34.428;-119.710;2022-12-08T06:02:43;9;9;
40569;PMS5003;26270;34.428;-119.710;2022-12-08T06:05:11;10;10;
40569;PMS5003;26270;34.428;-119.710;2022-12-08T06:07:40;10;9;
40569;PMS5003;26270;34.428;-119.710;2022-12-08T06:10:08;7;6;
40569;PMS5003;26270;34.428;-119.710;2022-12-08T06:12:37;6;6;
40569;PMS5003;26270;34.428;-119.710;2022-12-08T06:15:06;7;6;
40569;PMS5003;26270;34.428;-119.710;2022-12-08T06:17:34;8;7;
40569;PMS5003;26270;34.428;-119.710;2022-12-08T06:20:03;8;7;
40569;PMS5003;26270;34.428;-119.710;2022-12-08T06:22:32;6;6;
40569;PMS5003;26270;34.428;-119.710;2022-12-08T06:25:01;4;4;
40569;PMS5003;26270;34.428;-119.710;2022-12-08T06:27:30;4;4;
40569;PMS5003;26270;34.428;-119.710;2022-12-08T06:30:00;3;3;
40569;PMS5003;26270;34.428;-119.710;2022-12-08T06:32:28;3;3;
40569;PMS5003;26270;34.428;-119.710;2022-12-08T06:34:57;3;3;
40569;PMS5003;26270;34.428;-119.710;2022-12-08T06:37:25;4;3;
40569;PMS5003;26270;34.428;-119.710;2022-12-08T06:39:53;2;2;
40569;PMS5003;26270;34.428;-119.710;2022-12-08T06:42:21;5;3;
40569;PMS5003;26270;34.428;-119.710;2022-12-08T06:44:49;5;3;
40569;PMS5003;26270;34.428;-119.710;2022-12-08T06:47:19;2;2;
40569;PMS5003;26270;34.428;-119.710;2022-12-08T06:49:48;4;3;
40569;PMS5003;26270;34.428;-119.710;2022-12-08T06:52:15;1;1;
40569;PMS5003;26270;34.428;-119.710;2022-12-08T06:54:44;2;2;
40569;PMS5003;26270;34.428;-119.710;2022-12-08T06:57:13;2;2;
40569;PMS5003;26270;34.428;-119.710;2022-12-08T06:59:41;2;1;
40569;PMS5003;26270;34.428;-119.710;2022-12-08T07:02:09;1;1;
40569;PMS5003;26270;34.428;-119.710;2022-12-08T07:04:38;1;1;
40569;PMS5003;26270;34.428;-119.710;2022-12-08T07:07:06;2;2;
40569;PMS5003;26270;34.428;-119.710;2022-12-08T07:09:34;3;3;
40569;PMS5003;26270;34.428;-119.710;2022-12-08T07:12:03;1;1;
40569;PMS5003;26270;34.428;-119.710;2022-12-08T07:14:31;1;1;
40569;PMS5003;26270;34.428;-119.710;2022-12-08T07:17:00;3;3;
40569;PMS5003;26270;34.428;-119.710;2022-12-08T07:19:28;1;1;
40569;PMS5003;26270;34.428;-119.710;2022-12-08T07:21:57;2;2;
40569;PMS5003;26270;34.428;-119.710;2022-12-08T07:24:25;3;3;
40569;PMS5003;26270;34.428;-119.710;2022-12-08T07:26:53;5;5;
40569;PMS5003;26270;34.428;-119.710;2022-12-08T07:29:22;4;3;
40569;PMS5003;26270;34.428;-119.710;2022-12-08T07:31:49;4;4;
40569;PMS5003;26270;34.428;-119.710;2022-12-08T07:34:17;3;3;
40569;PMS5003;26270;34.428;-119.710;2022-12-08T07:36:45;3;3;
40569;PMS5003;26270;34.428;-119.710;2022-12-08T07:39:14;3;3;
40569;PMS5003;26270;34.428;-119.710;2022-12-08T07:41:42;2;2;
40569;PMS5003;26270;34.428;-119.710;2022-12-08T07:44:10;2;2;
40569;PMS5003;26270;34.428;-119.710;2022-12-08T07:46:38;2;2;
40569;PMS5003;26270;34.428;-119.710;2022-12-08T07:49:06;1;1;
40569;PMS5003;26270;34.428;-119.710;2022-12-08T07:51:34;2;2;
40569;PMS5003;26270;34.428;-119.710;2022-12-08T07:54:03;3;2;
40569;PMS5003;26270;34.428;-119.710;2022-12-08T07:56:32;2;2;
40569;PMS5003;26270;34.428;-119.710;2022-12-08T07:59:00;2;1;
40569;PMS5003;26270;34.428;-119.710;2022-12-08T08:01:30;1;1;
40569;PMS5003;26270;34.428;-119.710;2022-12-08T08:04:01;1;1;
40569;PMS5003;26270;34.428;-119.710;2022-12-08T08:06:31;1;1;
40569;PMS5003;26270;34.428;-119.710;2022-12-08T08:09:00;1;1;
40569;PMS5003;26270;34.428;-119.710;2022-12-08T08:11:28;1;1;
40569;PMS5003;26270;34.428;-119.710;2022-12-08T08:13:56;2;2;
40569;PMS5003;26270;34.428;-119.710;2022-12-08T08:16:25;1;1;
40569;PMS5003;26270;34.428;-119.710;2022-12-08T08:18:53;2;2;
40569;PMS5003;26270;34.428;-119.710;2022-12-08T08:21:21;1;1;
40569;PMS5003;26270;34.428;-119.710;2022-12-08T08:23:50;1;1;
40569;PMS5003;26270;34.428;-119.710;2022-12-08T08:26:17;1;1;
40569;PMS5003;26270;34.428;-119.710;2022-12-08T08:28:46;1;1;
40569;PMS5003;26270;34.428;-119.710;2022-12-08T08:31:14;1;1;
40569;PMS5003;26270;34.428;-119.710;2022-12-08T08:33:43;2;2;
40569;PMS5003;26270;34.428;-119.710;2022-12-08T08:36:11;1;1;
40569;PMS5003;26270;34.428;-119.710;2022-12-08T08:38:40;1;1;
40569;PMS5003;26270;34.428;-119.710;2022-12-08T08:41:08;1;1;
40569;PMS5003;26270;34.428;-119.710;2022-12-08T08:43:37;2;2;
40569;PMS5003;26270;34.428;-119.710;2022-12-08T08:46:05;2;1;
40569;PMS5003;26270;34.428;-119.710;2022-12-08T08:48:38;2;2;
40569;PMS5003;26270;34.428;-119.710;2022-12-08T08:51:07;0;0;
40569;PMS5003;26270;34.428;-119.710;2022-12-08T08:53:36;1;1;
40569;PMS5003;26270;34.428;-119.710;2022-12-08T08:56:07;2;1;
40569;PMS5003;26270;34.428;-119.710;2022-12-08T08:58:36;2;1;
40569;PMS5003;26270;34.428;-119.710;2022-12-08T09:01:04;1;1;
40569;PMS5003;26270;34.428;-119.710;2022-12-08T09:03:33;0;0;
40569;PMS5003;26270;34.428;-119.710;2022-12-08T09:06:02;1;1;
40569;PMS5003;26270;34.428;-119.710;2022-12-08T09:08:30;1;1;
40569;PMS5003;26270;34.428;-119.710;2022-12-08T09:10:58;1;1;
40569;PMS5003;26270;34.428;-119.710;2022-12-08T09:13:27;1;1;
40569;PMS5003;26270;34.428;-119.710;2022-12-08T09:15:55;1;1;
40569;PMS5003;26270;34.428;-119.710;2022-12-08T09:18:23;3;2;
40569;PMS5003;26270;34.428;-119.710;2022-12-08T09:20:52;2;2;
40569;PMS5003;26270;34.428;-119.710;2022-12-08T09:23:20;4;4;
40569;PMS5003;26270;34.428;-119.710;2022-12-08T09:25:49;5;5;
40569;PMS5003;26270;34.428;-119.710;2022-12-08T09:28:17;5;5;
40569;PMS5003;26270;34.428;-119.710;2022-12-08T09:30:46;3;3;
40569;PMS5003;26270;34.428;-119.710;2022-12-08T09:33:14;2;2;
40569;PMS5003;26270;34.428;-119.710;2022-12-08T09:35:43;2;2;
40569;PMS5003;26270;34.428;-119.710;2022-12-08T09:38:12;2;2;
40569;PMS5003;26270;34.428;-119.710;2022-12-08T09:40:41;3;2;
40569;PMS5003;26270;34.428;-119.710;2022-12-08T09:43:18;2;1;
40569;PMS5003;26270;34.428;-119.710;2022-12-08T09:45:58;2;1;
40569;PMS5003;26270;34.428;-119.710;2022-12-08T09:48:29;2;1;
40569;PMS5003;26270;34.428;-119.710;2022-12-08T09:51:01;2;1;
40569;PMS5003;26270;34.428;-119.710;2022-12-08T09:53:33;2;1;
40569;PMS5003;26270;34.428;-119.710;2022-12-08T09:56:05;1;1;
40569;PMS5003;26270;34.428;-119.710;2022-12-08T09:58:43;1;0;
40569;PMS5003;26270;34.428;-119.710;2022-12-08T10:01:15;2;1;
40569;PMS5003;26270;34.428;-119.710;2022-12-08T10:03:44;1;1;
40569;PMS5003;26270;34.428;-119.710;2022-12-08T10:06:14;0;0;
40569;PMS5003;26270;34.428;-119.710;2022-12-08T10:08:50;0;0;
40569;PMS5003;26270;34.428;-119.710;2022-12-08T10:11:26;1;0;
40569;PMS5003;26270;34.428;-119.710;2022-12-08T10:14:04;0;0;
40569;PMS5003;26270;34.428;-119.710;2022-12-08T10:16:41;0;0;
40569;PMS5003;26270;34.428;-119.710;2022-12-08T10:19:14;1;1;
40569;PMS5003;26270;34.428;-119.710;2022-12-08T10:21:48;0;0;
40569;PMS5003;26270;34.428;-119.710;2022-12-08T10:24:20;0;0;
40569;PMS5003;26270;34.428;-119.710;2022-12-08T10:26:52;1;0;
40569;PMS5003;26270;34.428;-119.710;2022-12-08T10:29:21;0;0;
40569;PMS5003;26270;34.428;-119.710;2022-12-08T10:31:50;0;0;
40569;PMS5003;26270;34.428;-119.710;2022-12-08T10:34:19;0;0;
40569;PMS5003;26270;34.428;-119.710;2022-12-08T10:36:50;0;0;
40569;PMS5003;26270;34.428;-119.710;2022-12-08T10:39:28;0;0;
40569;PMS5003;26270;34.428;-119.710;2022-12-08T10:42:00;2;1;
40569;PMS5003;26270;34.428;-119.710;2022-12-08T10:44:32;0;0;
40569;PMS5003;26270;34.428;-119.710;2022-12-08T10:47:10;0;0;
40569;PMS5003;26270;34.428;-119.710;2022-12-08T10:49:39;0;0;
40569;PMS5003;26270;34.428;-119.710;2022-12-08T10:52:08;0;0;
40569;PMS5003;26270;34.428;-119.710;2022-12-08T10:54:50;1;0;
40569;PMS5003;26270;34.428;-119.710;2022-12-08T10:57:21;0;0;
40569;PMS5003;26270;34.428;-119.710;2022-12-08T10:59:49;1;1;
40569;PMS5003;26270;34.428;-119.710;2022-12-08T11:02:20;2;1;
40569;PMS5003;26270;34.428;-119.710;2022-12-08T11:04:55;0;0;
40569;PMS5003;26270;34.428;-119.710;2022-12-08T11:07:24;0;0;
40569;PMS5003;26270;34.428;-119.710;2022-12-08T11:09:54;0;0;
40569;PMS5003;26270;34.428;-119.710;2022-12-08T11:12:25;0;0;
40569;PMS5003;26270;34.428;-119.710;2022-12-08T11:14:56;1;1;
40569;PMS5003;26270;34.428;-119.710;2022-12-08T11:17:26;0;0;
40569;PMS5003;26270;34.428;-119.710;2022-12-08T11:20:03;1;1;
40569;PMS5003;26270;34.428;-119.710;2022-12-08T11:22:50;0;0;
40569;PMS5003;26270;34.428;-119.710;2022-12-08T11:25:20;1;1;
40569;PMS5003;26270;34.428;-119.710;2022-12-08T11:27:50;1;0;
40569;PMS5003;26270;34.428;-119.710;2022-12-08T11:30:21;1;1;
40569;PMS5003;26270;34.428;-119.710;2022-12-08T11:32:52;0;0;
40569;PMS5003;26270;34.428;-119.710;2022-12-08T11:35:25;0;0;
40569;PMS5003;26270;34.428;-119.710;2022-12-08T11:37:56;1;1;
40569;PMS5003;26270;34.428;-119.710;2022-12-08T11:40:31;0;0;
40569;PMS5003;26270;34.428;-119.710;2022-12-08T11:43:05;0;0;
40569;PMS5003;26270;34.428;-119.710;2022-12-08T11:45:41;2;1;
40569;PMS5003;26270;34.428;-119.710;2022-12-08T11:48:11;1;1;
40569;PMS5003;26270;34.428;-119.710;2022-12-08T11:50:44;1;1;
40569;PMS5003;26270;34.428;-119.710;2022-12-08T11:53:19;1;0;
40569;PMS5003;26270;34.428;-119.710;2022-12-08T11:55:56;1;1;
40569;PMS5003;26270;34.428;-119.710;2022-12-08T11:58:28;1;1;
40569;PMS5003;26270;34.428;-119.710;2022-12-08T12:01:07;1;1;
40569;PMS5003;26270;34.428;-119.710;2022-12-08T12:03:45;2;1;
40569;PMS5003;26270;34.428;-119.710;2022-12-08T12:06:25;1;1;
40569;PMS5003;26270;34.428;-119.710;2022-12-08T12:09:10;2;2;
40569;PMS5003;26270;34.428;-119.710;2022-12-08T12:11:46;0;0;
40569;PMS5003;26270;34.428;-119.710;2022-12-08T12:14:29;0;0;
40569;PMS5003;26270;34.428;-119.710;2022-12-08T12:17:19;0;0;
40569;PMS5003;26270;34.428;-119.710;2022-12-08T12:20:01;1;1;
40569;PMS5003;26270;34.428;-119.710;2022-12-08T12:22:35;1;0;
40569;PMS5003;26270;34.428;-119.710;2022-12-08T12:25:05;1;1;
40569;PMS5003;26270;34.428;-119.710;2022-12-08T12:27:41;1;0;
40569;PMS5003;26270;34.428;-119.710;2022-12-08T12:30:18;1;0;
40569;PMS5003;26270;34.428;-119.710;2022-12-08T12:32:51;0;0;
40569;PMS5003;26270;34.428;-119.710;2022-12-08T12:35:26;1;1;
40569;PMS5003;26270;34.428;-119.710;2022-12-08T12:38:00;1;0;
40569;PMS5003;26270;34.428;-119.710;2022-12-08T12:40:34;0;0;
40569;PMS5003;26270;34.428;-119.710;2022-12-08T12:43:12;1;1;
40569;PMS5003;26270;34.428;-119.710;2022-12-08T12:46:08;0;0;
40569;PMS5003;26270;34.428;-119.710;2022-12-08T12:50:11;1;1;
40569;PMS5003;26270;34.428;-119.710;2022-12-08T12:52:41;0;0;
40569;PMS5003;26270;34.428;-119.710;2022-12-08T12:55:55;2;1;
40569;PMS5003;26270;34.428;-119.710;2022-12-08T12:58:34;1;1;
40569;PMS5003;26270;34.428;-119.710;2022-12-08T13:01:45;1;1;
40569;PMS5003;26270;34.428;-119.710;2022-12-08T13:04:20;1;1;
40569;PMS5003;26270;34.428;-119.710;2022-12-08T13:06:57;2;1;
40569;PMS5003;26270;34.428;-119.710;2022-12-08T13:09:29;2;1;
40569;PMS5003;26270;34.428;-119.710;2022-12-08T13:12:02;0;0;
40569;PMS5003;26270;34.428;-119.710;2022-12-08T13:14:36;1;1;
40569;PMS5003;26270;34.428;-119.710;2022-12-08T13:17:11;1;0;
40569;PMS5003;26270;34.428;-119.710;2022-12-08T13:19:42;1;1;
40569;PMS5003;26270;34.428;-119.710;2022-12-08T13:22:48;1;1;
40569;PMS5003;26270;34.428;-119.710;2022-12-08T13:26:10;1;1;
40569;PMS5003;26270;34.428;-119.710;2022-12-08T13:29:13;1;1;
40569;PMS5003;26270;34.428;-119.710;2022-12-08T13:31:45;1;1;
40569;PMS5003;26270;34.428;-119.710;2022-12-08T13:34:17;3;3;
40569;PMS5003;26270;34.428;-119.710;2022-12-08T13:36:54;2;2;
40569;PMS5003;26270;34.428;-119.710;2022-12-08T13:39:33;4;3;
40569;PMS5003;26270;34.428;-119.710;2022-12-08T13:42:13;3;3;
40569;PMS5003;26270;34.428;-119.710;2022-12-08T13:44:48;1;1;
40569;PMS5003;26270;34.428;-119.710;2022-12-08T13:47:21;3;3;
40569;PMS5003;26270;34.428;-119.710;2022-12-08T13:49:55;1;1;
40569;PMS5003;26270;34.428;-119.710;2022-12-08T13:52:31;2;2;
40569;PMS5003;26270;34.428;-119.710;2022-12-08T13:55:02;2;2;
40569;PMS5003;26270;34.428;-119.710;2022-12-08T13:57:33;3;3;
40569;PMS5003;26270;34.428;-119.710;2022-12-08T14:00:05;4;4;
40569;PMS5003;26270;34.428;-119.710;2022-12-08T14:02:41;3;3;
40569;PMS5003;26270;34.428;-119.710;2022-12-08T14:05:11;5;5;
40569;PMS5003;26270;34.428;-119.710;2022-12-08T14:07:40;11;11;
40569;PMS5003;26270;34.428;-119.710;2022-12-08T14:10:12;14;14;
40569;PMS5003;26270;34.428;-119.710;2022-12-08T14:12:44;15;15;
40569;PMS5003;26270;34.428;-119.710;2022-12-08T14:15:17;22;21;
40569;PMS5003;26270;34.428;-119.710;2022-12-08T14:17:49;29;29;
40569;PMS5003;26270;34.428;-119.710;2022-12-08T14:20:19;12;11;
40569;PMS5003;26270;34.428;-119.710;2022-12-08T14:22:50;29;29;
40569;PMS5003;26270;34.428;-119.710;2022-12-08T14:25:20;38;37;
40569;PMS5003;26270;34.428;-119.710;2022-12-08T14:27:49;23;23;
40569;PMS5003;26270;34.428;-119.710;2022-12-08T14:30:24;42;41;
40569;PMS5003;26270;34.428;-119.710;2022-12-08T14:32:55;33;31;
40569;PMS5003;26270;34.428;-119.710;2022-12-08T14:35:26;38;38;
40569;PMS5003;26270;34.428;-119.710;2022-12-08T14:37:56;46;46;
40569;PMS5003;26270;34.428;-119.710;2022-12-08T14:40:28;41;41;
40569;PMS5003;26270;34.428;-119.710;2022-12-08T14:43:05;38;38;
40569;PMS5003;26270;34.428;-119.710;2022-12-08T14:45:49;38;37;
40569;PMS5003;26270;34.428;-119.710;2022-12-08T14:48:20;34;33;
40569;PMS5003;26270;34.428;-119.710;2022-12-08T14:50:55;32;31;
40569;PMS5003;26270;34.428;-119.710;2022-12-08T14:53:35;36;36;
40569;PMS5003;26270;34.428;-119.710;2022-12-08T14:56:06;30;27;
40569;PMS5003;26270;34.428;-119.710;2022-12-08T14:58:41;34;34;
40569;PMS5003;26270;34.428;-119.710;2022-12-08T15:01:12;50;50;
40569;PMS5003;26270;34.428;-119.710;2022-12-08T15:03:42;27;27;
40569;PMS5003;26270;34.428;-119.710;2022-12-08T15:06:11;8;5;
40569;PMS5003;26270;34.428;-119.710;2022-12-08T15:08:51;31;31;
40569;PMS5003;26270;34.428;-119.710;2022-12-08T15:11:26;22;22;
40569;PMS5003;26270;34.428;-119.710;2022-12-08T15:13:59;27;27;
40569;PMS5003;26270;34.428;-119.710;2022-12-08T15:16:28;23;22;
40569;PMS5003;26270;34.428;-119.710;2022-12-08T15:19:04;17;17;
40569;PMS5003;26270;34.428;-119.710;2022-12-08T15:21:52;15;15;
40569;PMS5003;26270;34.428;-119.710;2022-12-08T15:24:23;12;11;
40569;PMS5003;26270;34.428;-119.710;2022-12-08T15:26:54;7;7;
40569;PMS5003;26270;34.428;-119.710;2022-12-08T15:29:23;6;5;
40569;PMS5003;26270;34.428;-119.710;2022-12-08T15:31:53;3;3;
40569;PMS5003;26270;34.428;-119.710;2022-12-08T15:34:23;2;2;
40569;PMS5003;26270;34.428;-119.710;2022-12-08T15:36:52;2;2;
40569;PMS5003;26270;34.428;-119.710;2022-12-08T15:39:23;2;2;
40569;PMS5003;26270;34.428;-119.710;2022-12-08T15:41:59;3;2;
40569;PMS5003;26270;34.428;-119.710;2022-12-08T15:44:28;2;2;
40569;PMS5003;26270;34.428;-119.710;2022-12-08T15:46:57;3;2;
40569;PMS5003;26270;34.428;-119.710;2022-12-08T15:49:25;3;2;
40569;PMS5003;26270;34.428;-119.710;2022-12-08T15:51:54;1;1;
40569;PMS5003;26270;34.428;-119.710;2022-12-08T15:54:22;1;1;
40569;PMS5003;26270;34.428;-119.710;2022-12-08T15:56:51;2;2;
40569;PMS5003;26270;34.428;-119.710;2022-12-08T15:59:23;6;5;
40569;PMS5003;26270;34.428;-119.710;2022-12-08T16:01:52;4;3;
40569;PMS5003;26270;34.428;-119.710;2022-12-08T16:04:20;2;2;
40569;PMS5003;26270;34.428;-119.710;2022-12-08T16:06:49;4;3;
40569;PMS5003;26270;34.428;-119.710;2022-12-08T16:09:19;3;3;
40569;PMS5003;26270;34.428;-119.710;2022-12-08T16:11:51;3;3;
40569;PMS5003;26270;34.428;-119.710;2022-12-08T16:14:19;5;3;
40569;PMS5003;26270;34.428;-119.710;2022-12-08T16:16:46;3;2;
40569;PMS5003;26270;34.428;-119.710;2022-12-08T16:19:14;3;3;
40569;PMS5003;26270;34.428;-119.710;2022-12-08T16:21:42;5;4;
40569;PMS5003;26270;34.428;-119.710;2022-12-08T16:24:09;5;4;
40569;PMS5003;26270;34.428;-119.710;2022-12-08T16:26:37;4;3;
40569;PMS5003;26270;34.428;-119.710;2022-12-08T16:29:05;2;1;